Time;durP1;ratioP1;P1;durP2;ratioP2;P2;SDS_P1;SDS_P2;PMS_P1;PMS_P2;Temp;Humidity;BMP_temperature;BMP_pressure;BME280_temperature;BME280_humidity;BME280_pressure;Samples;Min_cycle;Max_cycle;Signal;HPM_P1;HPM_P2
2022/06/16 00:00:40;;;;;;;3.52;1.55;;;;;;;16.19;61.14;101024.63;1776038;80;21520;-90
2022/06/16 00:03:07;;;;;;;5.33;1.42;;;;;;;16.17;61.29;101024.73;1775869;80;21128;-88
2022/06/16 00:05:36;;;;;;;4.95;1.75;;;;;;;16.17;61.13;101020.77;1775720;80;20885;-88
2022/06/16 00:08:05;;;;;;;4.80;2.08;;;;;;;16.17;61.26;101023.42;1775877;80;20916;-89
2022/06/16 00:10:32;;;;;;;6.10;1.90;;;;;;;16.15;61.04;101020.05;1775706;80;21425;-90
2022/06/16 00:12:59;;;;;;;2.35;1.40;;;;;;;16.14;61.25;101019.66;1775788;80;21445;-90
2022/06/16 00:15:27;;;;;;;5.45;2.25;;;;;;;16.11;61.20;101013.30;1775723;80;21262;-89
2022/06/16 00:17:56;;;;;;;3.60;1.60;;;;;;;16.12;61.43;101015.83;1775845;80;20865;-90
2022/06/16 00:20:24;;;;;;;4.62;1.60;;;;;;;16.12;61.53;101025.09;1775903;80;20877;-89
2022/06/16 00:22:51;;;;;;;5.10;1.87;;;;;;;16.11;61.52;101023.87;1775719;80;20940;-88
2022/06/16 00:25:18;;;;;;;6.10;1.77;;;;;;;16.07;61.67;101021.10;1776147;80;21478;-88
2022/06/16 00:27:44;;;;;;;7.92;1.70;;;;;;;16.05;61.80;101023.89;1776031;80;21845;-89
2022/06/16 00:30:12;;;;;;;4.33;2.35;;;;;;;16.03;61.90;101024.48;1778788;80;20939;-89
2022/06/16 00:32:41;;;;;;;3.35;1.62;;;;;;;15.99;61.90;101028.32;1784433;80;20928;-88
2022/06/16 00:35:09;;;;;;;3.12;1.70;;;;;;;15.98;62.13;101035.04;1784800;80;20943;-88
2022/06/16 00:37:36;;;;;;;1.67;1.50;;;;;;;15.93;62.06;101032.75;1784754;80;20888;-89
2022/06/16 00:40:04;;;;;;;6.72;1.67;;;;;;;15.87;62.21;101043.30;1784286;80;21433;-91
2022/06/16 00:42:30;;;;;;;2.60;1.75;;;;;;;15.84;62.44;101047.99;1783921;80;20904;-90
2022/06/16 00:44:58;;;;;;;7.90;1.90;;;;;;;15.81;62.53;101046.87;1784006;80;20884;-89
2022/06/16 00:47:28;;;;;;;4.78;2.05;;;;;;;15.75;62.47;101043.75;1753461;80;20857;-89
2022/06/16 00:50:00;;;;;;;1.65;1.55;;;;;;;15.69;62.61;101036.23;1784196;80;20876;-89
2022/06/16 00:52:30;;;;;;;2.58;1.72;;;;;;;15.63;62.74;101048.62;1784378;80;21132;-87
2022/06/16 00:55:05;;;;;;;1.55;1.40;;;;;;;15.58;62.98;101043.30;1784346;80;20916;-87
2022/06/16 00:57:41;;;;;;;2.72;1.37;;;;;;;15.53;63.04;101041.83;1784312;80;20916;-87
2022/06/16 01:00:16;;;;;;;3.25;1.62;;;;;;;15.52;63.32;101044.61;1784437;80;20943;-88
2022/06/16 01:02:43;;;;;;;4.72;1.67;;;;;;;15.50;63.33;101046.03;1784116;80;20896;-88
2022/06/16 01:05:09;;;;;;;4.25;1.62;;;;;;;15.48;63.31;101043.14;1784134;80;21144;-88
2022/06/16 01:07:43;;;;;;;2.35;1.15;;;;;;;15.48;63.43;101037.86;1784079;80;20971;-89
2022/06/16 01:10:10;;;;;;;3.55;1.40;;;;;;;15.47;63.40;101042.31;1784010;80;21026;-89
2022/06/16 01:16:06;;;;;;;1.87;1.40;;;;;;;15.49;62.96;101051.42;1784223;80;21503;-88
2022/06/16 01:19:01;;;;;;;1.82;1.40;;;;;;;15.49;62.67;101050.94;1784684;80;21222;-89
2022/06/16 01:21:54;;;;;;;1.87;1.57;;;;;;;15.48;62.34;101053.72;1785116;80;20869;-88
2022/06/16 01:24:52;;;;;;;4.08;1.35;;;;;;;15.47;62.31;101057.30;1768875;80;21545;-89
2022/06/16 01:27:52;;;;;;;5.08;1.30;;;;;;;15.41;62.45;101057.77;1784580;80;20971;-89
2022/06/16 01:30:27;;;;;;;1.80;1.40;;;;;;;15.41;62.45;101057.77;1784403;80;21007;-88
2022/06/16 01:33:12;;;;;;;6.00;2.00;;;;;;;15.37;62.77;101063.75;1753836;80;22184;-86
2022/06/16 01:35:58;;;;;;;2.02;1.02;;;;;;;15.36;63.00;101062.53;1784426;80;20912;-86
2022/06/16 01:38:47;;;;;;;4.30;1.20;;;;;;;15.34;63.01;101070.11;1765119;78;20956;-87
2022/06/16 01:41:25;;;;;;;3.77;1.57;;;;;;;15.30;63.11;101071.28;1786787;78;20920;-89
2022/06/16 01:44:06;;;;;;;3.00;1.60;;;;;;;15.25;63.11;101067.27;1786202;79;20880;-88
2022/06/16 01:46:34;;;;;;;2.65;1.37;;;;;;;15.25;63.26;101072.10;1785805;79;21245;-90
2022/06/16 01:49:16;;;;;;;5.00;1.90;;;;;;;15.25;63.42;101073.42;1785159;79;20896;-89
2022/06/16 01:51:55;;;;;;;3.42;1.40;;;;;;;15.23;63.43;101071.82;1787013;79;20797;-87
2022/06/16 01:54:28;;;;;;;5.03;2.05;;;;;;;15.23;63.43;101071.82;1785970;80;20979;-90
2022/06/16 01:57:01;;;;;;;6.62;1.62;;;;;;;15.21;63.21;101067.16;1784284;80;21351;-88
2022/06/16 01:59:45;;;;;;;2.35;1.65;;;;;;;15.19;63.53;101076.50;1784795;80;21122;-87
2022/06/16 02:02:16;;;;;;;2.52;1.60;;;;;;;15.15;63.65;101067.59;1784416;80;20967;-87
2022/06/16 02:04:49;;;;;;;5.50;1.55;;;;;;;15.12;63.80;101065.53;1784385;80;21042;-88
2022/06/16 02:07:19;;;;;;;3.45;1.77;;;;;;;15.10;64.02;101074.04;1784583;80;20967;-87
2022/06/16 02:09:50;;;;;;;5.83;1.92;;;;;;;15.06;64.03;101077.85;1784578;80;20884;-87
2022/06/16 02:15:36;;;;;;;3.58;2.00;;;;;;;15.01;64.23;101076.51;1783613;80;20880;-88
2022/06/16 02:18:12;;;;;;;1.92;1.77;;;;;;;14.97;64.50;101078.52;1783932;80;20853;-88
2022/06/16 02:20:53;;;;;;;3.00;1.57;;;;;;;14.96;64.50;101083.89;1784007;80;21508;-89
2022/06/16 02:23:21;;;;;;;3.87;1.60;;;;;;;14.93;64.71;101084.95;1782782;80;20892;-88
2022/06/16 02:25:50;;;;;;;4.15;1.55;;;;;;;14.95;64.91;101083.54;1783922;80;21195;-88
2022/06/16 02:28:17;;;;;;;3.05;1.50;;;;;;;14.96;64.92;101093.14;1783859;80;20915;-88
2022/06/16 02:30:52;;;;;;;2.95;1.52;;;;;;;14.94;64.98;101095.91;1781583;80;21113;-88
2022/06/16 02:33:24;;;;;;;7.35;2.60;;;;;;;14.95;65.04;101098.91;1775715;80;21293;-88
2022/06/16 02:36:23;;;;;;;4.70;3.75;;;;;;;14.92;65.13;101099.13;1774521;80;21495;-89
2022/06/16 02:39:13;;;;;;;4.55;3.92;;;;;;;14.92;65.13;101099.13;1776303;80;21216;-86
2022/06/16 02:41:54;;;;;;;7.60;4.85;;;;;;;14.92;65.28;101103.09;1775815;80;20983;-87
2022/06/16 02:44:27;;;;;;;4.45;4.05;;;;;;;14.92;65.12;101103.09;1763153;80;20956;-89
2022/06/16 02:47:12;;;;;;;5.92;3.45;;;;;;;14.93;65.47;101102.13;1775452;80;20927;-89
2022/06/16 02:49:53;;;;;;;6.20;2.95;;;;;;;14.95;65.60;101109.95;1776010;80;21011;-89
2022/06/16 02:52:41;;;;;;;3.17;2.12;;;;;;;14.97;65.65;101111.53;1775124;80;21235;-90
2022/06/16 02:55:18;;;;;;;4.17;2.08;;;;;;;14.99;65.78;101110.95;1775988;80;21409;-89
2022/06/16 02:57:54;;;;;;;3.70;2.05;;;;;;;15.03;65.58;101112.88;1775893;80;21130;-89
2022/06/16 03:00:42;;;;;;;3.92;1.95;;;;;;;15.05;65.38;101109.20;1774557;80;20944;-87
2022/06/16 03:03:27;;;;;;;3.98;2.30;;;;;;;15.09;65.47;101110.64;1775795;80;20963;-89
2022/06/16 03:05:58;;;;;;;2.40;1.85;;;;;;;15.16;64.91;101118.13;1763537;80;21279;-88
2022/06/16 03:08:27;;;;;;;6.28;3.02;;;;;;;15.20;64.80;101113.00;1775558;80;20952;-86
2022/06/16 03:11:02;;;;;;;2.08;1.45;;;;;;;15.26;64.97;101114.73;1775624;80;21449;-86
2022/06/16 03:13:29;;;;;;;5.80;1.70;;;;;;;15.32;64.72;101115.62;1774867;80;20916;-88
2022/06/16 03:15:57;;;;;;;3.00;1.70;;;;;;;15.39;64.56;101120.47;1753549;80;20896;-88
2022/06/16 03:18:25;;;;;;;4.83;1.27;;;;;;;15.47;64.48;101120.73;1775844;80;21221;-90
2022/06/16 03:20:51;;;;;;;2.98;1.40;;;;;;;15.53;64.27;101117.16;1738651;82;20940;-89
2022/06/16 03:23:18;;;;;;;7.20;2.10;;;;;;;15.60;64.02;101114.92;1775898;80;20877;-88
2022/06/16 03:25:46;;;;;;;5.67;1.67;;;;;;;15.67;63.64;101119.28;1775762;80;20897;-88
2022/06/16 03:28:13;;;;;;;2.55;1.40;;;;;;;15.73;63.84;101120.19;1776118;80;20983;-88
2022/06/16 03:30:41;;;;;;;3.62;1.65;;;;;;;15.81;63.49;101127.09;1777284;80;21150;-87
2022/06/16 03:33:09;;;;;;;2.17;1.37;;;;;;;15.88;63.35;101119.55;1753252;80;20979;-88
2022/06/16 03:35:36;;;;;;;2.62;1.50;;;;;;;15.95;63.11;101122.09;1784693;80;21367;-87
2022/06/16 03:38:05;;;;;;;8.13;1.27;;;;;;;16.02;62.49;101117.19;1784231;80;20924;-86
2022/06/16 03:40:33;;;;;;;1.67;1.15;;;;;;;16.09;62.38;101127.17;1784530;80;20864;-88
2022/06/16 03:43:00;;;;;;;2.27;1.55;;;;;;;16.16;61.88;101122.27;1785148;80;21153;-88
2022/06/16 03:45:28;;;;;;;4.72;1.72;;;;;;;16.23;61.43;101120.00;1783839;80;21365;-86
2022/06/16 03:47:54;;;;;;;3.75;1.40;;;;;;;16.28;61.08;101120.52;1784202;80;20873;-88
2022/06/16 03:50:21;;;;;;;3.17;1.15;;;;;;;16.34;60.24;101121.34;1783991;80;20900;-88
2022/06/16 03:52:49;;;;;;;6.50;1.32;;;;;;;16.43;60.12;101122.00;1783938;80;20936;-89
2022/06/16 03:55:18;;;;;;;2.47;1.20;;;;;;;16.52;59.79;101119.13;1784106;80;21163;-89
2022/06/16 03:57:47;;;;;;;2.85;1.15;;;;;;;16.62;59.46;101125.86;1783669;80;20850;-88
2022/06/16 04:00:15;;;;;;;4.00;1.12;;;;;;;16.69;58.93;101119.13;1783873;80;20971;-88
2022/06/16 04:02:49;;;;;;;1.98;1.05;;;;;;;16.77;58.56;101121.53;1784255;80;20853;-88
2022/06/16 04:05:21;;;;;;;1.95;1.32;;;;;;;16.86;58.67;101122.66;1783445;80;20936;-87
2022/06/16 04:07:50;;;;;;;1.77;1.20;;;;;;;16.97;58.64;101125.30;1768517;80;21264;-88
2022/06/16 04:10:18;;;;;;;6.35;1.10;;;;;;;17.10;58.41;101128.32;1782730;80;20888;-88
2022/06/16 04:12:47;;;;;;;4.35;1.45;;;;;;;17.36;57.83;101128.41;1784171;80;20904;-88
2022/06/16 04:15:17;;;;;;;2.83;1.27;;;;;;;17.86;56.69;101127.91;1783033;80;20940;-87
2022/06/16 04:17:43;;;;;;;2.72;1.30;;;;;;;18.52;54.74;101129.48;1784057;80;20904;-88
2022/06/16 04:20:24;;;;;;;1.85;1.07;;;;;;;19.23;53.49;101126.87;1783901;80;21258;-87
2022/06/16 04:22:52;;;;;;;4.25;0.88;;;;;;;19.99;51.40;101130.30;1781613;80;20979;-87
2022/06/16 04:25:30;;;;;;;5.53;1.82;;;;;;;20.66;49.71;101123.20;1783966;80;20904;-88
2022/06/16 04:27:52;;;;;;;7.05;1.40;;;;;;;21.27;48.44;101128.45;1783171;80;21441;-87
2022/06/16 04:30:20;;;;;;;3.08;1.50;;;;;;;21.83;46.84;101121.20;1784097;80;21093;-87
2022/06/16 04:32:49;;;;;;;7.92;1.70;;;;;;;22.34;45.40;101120.97;1783841;80;21244;-87
2022/06/16 04:35:18;;;;;;;2.20;1.00;;;;;;;22.79;44.40;101126.59;1784023;80;20908;-88
2022/06/16 04:37:47;;;;;;;3.75;1.02;;;;;;;23.21;43.21;101117.78;1782588;80;20868;-89
2022/06/16 04:40:14;;;;;;;4.42;1.25;;;;;;;23.63;42.73;101118.17;1783784;80;20904;-89
2022/06/16 04:42:43;;;;;;;5.20;1.50;;;;;;;24.00;41.95;101117.73;1784005;80;20955;-88
2022/06/16 04:45:10;;;;;;;8.73;1.30;;;;;;;24.41;41.10;101112.83;1783933;80;21949;-89
2022/06/16 04:47:38;;;;;;;2.75;1.02;;;;;;;24.80;40.24;101112.92;1783992;80;21338;-89
2022/06/16 04:50:07;;;;;;;5.72;1.00;;;;;;;25.16;39.46;101104.88;1783686;80;21066;-88
2022/06/16 04:52:35;;;;;;;4.37;1.37;;;;;;;25.50;38.86;101113.09;1783621;80;20864;-88
2022/06/16 04:55:03;;;;;;;1.85;0.95;;;;;;;25.85;38.30;101111.16;1783845;80;20904;-87
2022/06/16 04:57:34;;;;;;;2.77;0.90;;;;;;;26.22;37.77;101112.73;1782062;80;20865;-88
2022/06/16 05:00:04;;;;;;;2.25;1.10;;;;;;;26.54;37.30;101110.71;1763404;80;20943;-88
2022/06/16 05:02:47;;;;;;;2.12;1.05;;;;;;;26.80;36.53;101108.94;1780691;80;20894;-87
2022/06/16 05:05:23;;;;;;;2.95;1.12;;;;;;;27.09;36.11;101112.09;1780510;80;20912;-88
2022/06/16 05:07:53;;;;;;;3.30;1.25;;;;;;;27.39;35.77;101109.34;1776528;80;20927;-88
2022/06/16 05:10:26;;;;;;;3.02;0.75;;;;;;;27.61;35.38;101117.76;1726781;80;21228;-89
2022/06/16 05:13:11;;;;;;;3.72;0.95;;;;;;;27.87;34.67;101114.52;1783713;80;20936;-88
2022/06/16 05:15:53;;;;;;;1.92;0.90;;;;;;;28.14;34.13;101114.73;1780760;80;20936;-88
2022/06/16 05:18:37;;;;;;;2.47;0.90;;;;;;;28.37;33.86;101123.95;1780386;80;20860;-88
2022/06/16 05:21:22;;;;;;;4.80;1.00;;;;;;;28.59;33.82;101119.34;1784109;80;20952;-87
2022/06/16 05:23:59;;;;;;;4.10;1.20;;;;;;;28.73;33.29;101125.64;1783017;80;21229;-87
2022/06/16 05:26:30;;;;;;;2.30;0.80;;;;;;;28.92;33.02;101126.23;1756388;80;21014;-87
2022/06/16 05:28:59;;;;;;;2.75;1.00;;;;;;;29.10;32.56;101120.84;1777086;80;20888;-87
2022/06/16 05:31:40;;;;;;;1.42;0.68;;;;;;;29.40;32.12;101117.83;1776693;80;20857;-87
2022/06/16 05:34:23;;;;;;;1.82;1.00;;;;;;;29.70;31.53;101118.31;1775560;80;21418;-88
2022/06/16 05:37:06;;;;;;;2.87;0.60;;;;;;;29.99;31.17;101119.78;1774779;80;21837;-88
2022/06/16 05:39:35;;;;;;;3.92;1.02;;;;;;;30.25;30.83;101116.23;1775758;80;20900;-89
2022/06/16 05:42:05;;;;;;;1.72;0.78;;;;;;;30.47;30.63;101124.14;1774293;80;20916;-88
2022/06/16 05:44:46;;;;;;;2.90;0.82;;;;;;;30.63;30.36;101112.84;1774619;80;20932;-89
2022/06/16 05:47:27;;;;;;;1.40;1.05;;;;;;;30.81;30.22;101116.75;1773102;80;21058;-87
2022/06/16 05:49:58;;;;;;;2.60;0.93;;;;;;;30.94;29.83;101119.45;1775539;80;21096;-88
2022/06/16 05:52:25;;;;;;;2.98;0.60;;;;;;;31.15;29.90;101121.86;1775813;80;20881;-89
2022/06/16 05:54:54;;;;;;;4.10;1.02;;;;;;;31.35;29.54;101112.80;1774591;80;21026;-89
2022/06/16 05:57:23;;;;;;;3.10;0.75;;;;;;;31.46;28.86;101116.70;1775420;80;20925;-89
2022/06/16 05:59:49;;;;;;;1.90;0.70;;;;;;;31.56;28.59;101119.23;1775763;80;20971;-89
2022/06/16 06:02:19;;;;;;;2.87;0.72;;;;;;;31.63;28.71;101119.19;1776507;80;21125;-88
2022/06/16 06:04:48;;;;;;;4.25;0.85;;;;;;;31.74;28.62;101116.30;1776911;80;20917;-87
2022/06/16 06:07:16;;;;;;;1.62;0.50;;;;;;;31.82;28.34;101117.39;1739163;82;20909;-88
2022/06/16 06:18:19;;;;;;;3.75;0.80;;;;;;;32.66;27.49;101115.19;1775874;80;20924;-88
2022/06/16 06:20:46;;;;;;;1.80;0.50;;;;;;;32.89;26.82;101123.17;1775957;80;21473;-88
2022/06/16 06:23:14;;;;;;;1.77;1.20;;;;;;;33.04;26.85;101126.32;1775943;80;21445;-88
2022/06/16 06:25:42;;;;;;;4.22;0.90;;;;;;;33.17;26.46;101121.25;1775825;80;20948;-87
2022/06/16 06:28:11;;;;;;;2.92;0.68;;;;;;;33.29;26.11;101124.86;1776277;80;21243;-89
2022/06/16 06:30:39;;;;;;;1.05;0.60;;;;;;;33.36;25.75;101122.04;1776035;80;20983;-89
2022/06/16 06:33:06;;;;;;;1.15;0.50;;;;;;;33.43;25.97;101123.59;1770716;79;20972;-89
2022/06/16 06:35:34;;;;;;;3.87;0.80;;;;;;;33.57;26.02;101120.16;1769001;81;20975;-88
2022/06/16 06:38:00;;;;;;;5.35;0.90;;;;;;;33.68;25.89;101119.08;1769005;81;20916;-85
2022/06/16 06:40:34;;;;;;;7.65;1.10;;;;;;;33.80;25.31;101113.13;1768580;81;21214;-88
2022/06/16 06:43:00;;;;;;;4.35;1.10;;;;;;;33.97;25.30;101122.78;1768498;80;21419;-87
2022/06/16 06:45:28;;;;;;;2.17;0.57;;;;;;;34.16;24.85;101127.63;1769220;81;20885;-89
2022/06/16 06:47:54;;;;;;;3.92;1.67;;;;;;;34.25;24.30;101127.56;1768934;81;20940;-89
2022/06/16 06:50:28;;;;;;;2.22;0.80;;;;;;;34.23;23.75;101119.62;1768837;80;21437;-88
2022/06/16 06:52:55;;;;;;;2.20;0.50;;;;;;;34.23;24.50;101114.17;1768859;81;22080;-89
2022/06/16 06:55:22;;;;;;;1.50;0.65;;;;;;;34.30;24.27;101117.31;1769239;81;20981;-91
2022/06/16 06:57:52;;;;;;;1.92;0.53;;;;;;;34.40;23.71;101120.28;1768979;80;20881;-90
2022/06/16 07:00:22;;;;;;;2.75;0.60;;;;;;;34.41;23.30;101118.66;1769391;81;20971;-90
2022/06/16 07:02:50;;;;;;;3.20;1.80;;;;;;;34.45;23.54;101120.38;1769030;81;21517;-89
2022/06/16 07:05:18;;;;;;;2.77;0.80;;;;;;;34.50;22.97;101116.39;1768860;81;21086;-89
2022/06/16 07:08:03;;;;;;;5.25;1.07;;;;;;;34.48;23.31;101115.80;1769416;81;20889;-87
2022/06/16 07:10:30;;;;;;;2.75;1.02;;;;;;;34.54;22.67;101118.94;1705122;83;20959;-90
2022/06/16 07:12:58;;;;;;;3.72;0.80;;;;;;;34.37;22.53;101116.11;1704414;83;20880;-90
2022/06/16 07:15:25;;;;;;;2.10;0.90;;;;;;;34.23;22.59;101116.08;1704430;84;20943;-88
2022/06/16 07:17:53;;;;;;;3.37;0.50;;;;;;;34.21;23.11;101108.14;1704903;83;21315;-89
2022/06/16 07:20:20;;;;;;;2.77;0.70;;;;;;;34.38;23.42;101115.06;1704184;83;21034;-88
2022/06/16 07:22:47;;;;;;;3.00;0.70;;;;;;;34.53;23.36;101113.21;1704338;83;20947;-90
2022/06/16 07:25:15;;;;;;;2.45;0.80;;;;;;;34.78;23.29;101110.76;1704346;83;20979;-89
2022/06/16 07:27:42;;;;;;;4.47;0.60;;;;;;;35.01;22.40;101107.11;1704568;83;20999;-89
2022/06/16 07:30:14;;;;;;;1.52;0.60;;;;;;;35.11;22.17;101105.11;1704675;83;21270;-89
2022/06/16 07:32:42;;;;;;;3.83;1.80;;;;;;;35.24;22.19;101102.11;1713620;82;20939;-88
2022/06/16 07:35:12;;;;;;;1.05;0.82;;;;;;;35.24;22.19;101102.11;1740396;81;21028;-89
2022/06/16 07:37:39;;;;;;;0.98;0.60;;;;;;;35.26;22.08;101103.55;1749815;82;20983;-89
2022/06/16 07:40:07;;;;;;;2.35;0.82;;;;;;;35.38;21.81;101114.94;1750133;81;20925;-89
2022/06/16 07:42:33;;;;;;;5.72;1.00;;;;;;;35.45;21.53;101120.51;1749854;82;21254;-89
2022/06/16 07:45:01;;;;;;;6.50;1.22;;;;;;;35.47;21.60;101116.19;1749498;82;21029;-89
2022/06/16 07:47:28;;;;;;;2.02;0.55;;;;;;;35.57;21.69;101119.06;1749476;81;20898;-89
2022/06/16 07:49:54;;;;;;;2.83;0.55;;;;;;;35.69;21.56;101115.77;1749635;81;21248;-89
2022/06/16 07:52:22;;;;;;;2.00;0.62;;;;;;;35.81;21.06;101112.95;1749774;82;20965;-87
2022/06/16 07:54:49;;;;;;;7.25;1.00;;;;;;;35.94;20.81;101110.97;1750148;81;21156;-88
2022/06/16 07:57:17;;;;;;;1.10;0.80;;;;;;;36.02;20.48;101115.99;1749867;81;20890;-87
2022/06/16 07:59:48;;;;;;;1.60;1.40;;;;;;;36.04;20.86;101114.69;1749995;82;20901;-89
2022/06/16 08:02:14;;;;;;;2.50;0.40;;;;;;;36.12;20.64;101109.91;1750225;81;21482;-89
2022/06/16 08:04:40;;;;;;;4.72;1.60;;;;;;;36.19;20.20;101114.64;1750635;82;21375;-88
2022/06/16 08:07:06;;;;;;;1.70;0.75;;;;;;;36.13;20.55;101112.40;1774523;80;21196;-89
2022/06/16 08:09:33;;;;;;;1.12;0.90;;;;;;;36.02;20.45;101110.02;1787672;80;21357;-89
2022/06/16 08:12:07;;;;;;;1.55;0.72;;;;;;;35.88;19.89;101115.52;1787160;80;20991;-87
2022/06/16 08:14:38;;;;;;;0.70;0.60;;;;;;;35.74;20.54;101111.48;1749808;82;20936;-87
2022/06/16 08:17:18;;;;;;;;;;;;;;;35.87;20.20;101115.23;1789599;80;20964;-88
2022/06/16 08:19:45;;;;;;;3.20;0.40;;;;;;;35.98;19.39;101114.32;1786594;80;21823;-88
2022/06/16 08:22:12;;;;;;;1.37;0.55;;;;;;;36.09;19.45;101109.84;1787026;80;21401;-89
2022/06/16 08:24:39;;;;;;;0.53;0.33;;;;;;;36.14;19.80;101112.67;1786902;80;20927;-88
2022/06/16 08:27:05;;;;;;;0.60;0.20;;;;;;;36.33;19.44;101121.94;1786910;80;20936;-90
2022/06/16 08:29:33;;;;;;;1.07;0.40;;;;;;;36.35;19.15;101121.15;1786707;80;20995;-88
2022/06/16 08:31:59;;;;;;;2.47;0.40;;;;;;;36.25;19.59;101117.20;1721808;80;21752;-88
2022/06/16 08:34:26;;;;;;;3.40;0.70;;;;;;;36.24;19.44;101118.80;1775909;80;20920;-89
2022/06/16 08:36:53;;;;;;;1.52;0.70;;;;;;;36.39;19.99;101110.83;1775878;80;21003;-87
2022/06/16 08:39:20;;;;;;;0.90;0.60;;;;;;;36.52;20.76;101113.73;1775723;80;21014;-88
2022/06/16 08:41:54;;;;;;;1.15;0.60;;;;;;;36.57;20.83;101119.80;1776020;80;20879;-88
2022/06/16 08:44:33;;;;;;;1.95;0.53;;;;;;;36.62;20.64;101118.53;1770582;80;21125;-88
2022/06/16 08:47:21;;;;;;;0.75;0.72;;;;;;;36.63;20.34;101109.27;1774464;80;20936;-88
2022/06/16 08:50:11;;;;;;;4.97;0.82;;;;;;;36.55;20.80;101120.05;1775808;80;20849;-88
2022/06/16 08:52:58;;;;;;;2.15;0.80;;;;;;;36.55;20.28;101117.86;1776373;80;20924;-89
2022/06/16 08:56:01;;;;;;;4.67;0.70;;;;;;;36.44;20.88;101116.90;1776345;80;20888;-90
2022/06/16 08:58:36;;;;;;;2.37;0.50;;;;;;;36.41;20.92;101114.14;1775729;80;21043;-91
2022/06/16 09:01:08;;;;;;;2.90;0.70;;;;;;;36.32;20.81;101111.56;1776494;79;21533;-89
2022/06/16 09:03:45;;;;;;;2.85;0.60;;;;;;;36.21;21.24;101113.86;1776605;80;20912;-89
2022/06/16 09:06:36;;;;;;;1.60;0.65;;;;;;;36.22;21.14;101109.52;1776803;80;20975;-90
2022/06/16 09:12:23;;;;;;;1.12;0.50;;;;;;;36.31;20.72;101107.19;1777054;80;21003;-89
2022/06/16 09:15:28;;;;;;;0.60;0.30;;;;;;;36.02;20.93;101112.75;1776943;80;20983;-89
2022/06/16 09:18:29;;;;;;;1.17;0.33;;;;;;;35.94;21.08;101106.88;1776756;80;20897;-89
2022/06/16 09:21:31;;;;;;;1.60;0.50;;;;;;;35.77;21.26;101103.60;1776556;80;20884;-90
2022/06/16 09:24:12;;;;;;;0.55;0.30;;;;;;;35.74;20.93;101095.92;1777088;80;21330;-88
2022/06/16 09:27:09;;;;;;;0.33;0.30;;;;;;;35.76;20.90;101097.87;1777099;80;21309;-88
2022/06/16 09:29:54;;;;;;;2.45;0.80;;;;;;;35.78;21.02;101097.63;1777032;80;21054;-89
2022/06/16 09:32:42;;;;;;;16.57;15.10;;;;;;;35.87;20.52;101095.59;1777774;80;21398;-89
2022/06/16 09:35:47;;;;;;;0.90;0.90;;;;;;;35.97;20.29;101092.17;1785159;80;20927;-87
2022/06/16 09:38:36;;;;;;;2.17;1.00;;;;;;;36.03;20.38;101092.55;1785271;80;20979;-89
2022/06/16 09:43:51;;;;;;;2.12;0.50;;;;;;;36.23;20.45;101096.14;1736407;80;20881;-89
2022/06/16 09:46:22;;;;;;;1.25;0.30;;;;;;;36.44;20.65;101100.50;1785208;80;20971;-92
2022/06/16 09:49:06;;;;;;;1.65;0.65;;;;;;;36.27;20.25;101094.56;1785477;80;20892;-89
2022/06/16 09:51:38;;;;;;;1.35;0.65;;;;;;;35.88;20.24;101099.13;1785162;80;21410;-90
2022/06/16 09:54:18;;;;;;;0.68;0.37;;;;;;;35.21;20.72;101095.80;1785770;80;21220;-90
2022/06/16 09:56:54;;;;;;;0.30;0.30;;;;;;;34.46;21.08;101102.45;1757947;80;20844;-91
2022/06/16 09:59:29;;;;;;;6.00;0.75;;;;;;;33.97;21.86;101104.58;1785303;80;20948;-89
2022/06/16 10:02:04;;;;;;;0.80;0.47;;;;;;;33.77;22.65;101099.98;1785093;80;20837;-91
2022/06/16 10:04:31;;;;;;;2.37;0.57;;;;;;;33.87;22.56;101098.88;1784739;80;20885;-90
2022/06/16 10:07:25;;;;;;;1.98;0.57;;;;;;;34.07;22.88;101098.53;1784629;80;21249;-91
2022/06/16 10:10:19;;;;;;;6.30;0.90;;;;;;;34.35;22.25;101091.55;1784693;80;20979;-90
2022/06/16 10:13:29;;;;;;;1.30;0.40;;;;;;;34.54;22.08;101086.80;1784420;80;20939;-90
2022/06/16 10:16:14;;;;;;;0.88;0.37;;;;;;;34.70;22.33;101089.33;1728488;80;21651;-91
2022/06/16 10:18:40;;;;;;;2.47;1.62;;;;;;;34.88;22.47;101096.80;1784649;80;20960;-90
2022/06/16 10:21:10;;;;;;;1.62;0.60;;;;;;;34.77;21.55;101084.56;1784633;80;21261;-90
2022/06/16 10:23:51;;;;;;;4.55;4.12;;;;;;;34.55;22.08;101091.16;1784388;80;20845;-90
2022/06/16 10:26:18;;;;;;;2.95;0.60;;;;;;;34.04;22.67;101093.03;1784145;80;20876;-89
2022/06/16 10:29:22;;;;;;;3.85;0.90;;;;;;;33.39;22.99;101091.11;1785420;80;20892;-90
2022/06/16 10:31:51;;;;;;;0.72;0.30;;;;;;;32.91;23.38;101090.63;1785980;80;20836;-89
2022/06/16 10:34:44;;;;;;;1.72;0.40;;;;;;;32.40;23.98;101088.58;1714695;83;21267;-91
2022/06/16 10:37:25;;;;;;;5.25;0.80;;;;;;;32.09;24.87;101087.34;1787118;80;20975;-90
2022/06/16 10:40:09;;;;;;;2.02;1.75;;;;;;;31.74;25.40;101082.40;1787102;80;20932;-89
2022/06/16 10:42:43;;;;;;;3.22;0.60;;;;;;;31.42;25.79;101078.90;1787113;80;20927;-89
2022/06/16 10:45:17;;;;;;;1.05;0.53;;;;;;;31.09;26.02;101071.77;1749383;82;21446;-88
2022/06/16 10:48:35;;;;;;;1.87;0.50;;;;;;;30.89;26.89;101079.99;1799834;79;22597;-90
2022/06/16 10:51:17;;;;;;;6.22;0.50;;;;;;;30.88;26.45;101076.46;1759442;80;21470;-90
2022/06/16 10:54:15;;;;;;;1.65;1.07;;;;;;;30.92;26.77;101075.48;1759249;81;21563;-89
2022/06/16 10:56:41;;;;;;;2.47;0.70;;;;;;;31.03;26.77;101078.04;1759021;81;20956;-89
2022/06/16 10:59:21;;;;;;;1.22;0.37;;;;;;;31.28;26.08;101079.45;1759060;81;20904;-90
2022/06/16 11:01:56;;;;;;;0.45;0.45;;;;;;;31.33;25.77;101073.70;1759159;81;20924;-90
2022/06/16 11:04:28;;;;;;;2.55;0.50;;;;;;;31.28;25.24;101068.61;1759082;81;21045;-89
2022/06/16 11:06:56;;;;;;;2.62;0.62;;;;;;;31.14;25.77;101070.05;1743005;81;21128;-89
2022/06/16 11:09:29;;;;;;;1.57;0.60;;;;;;;31.00;25.71;101071.19;1758795;80;20963;-91
2022/06/16 11:12:03;;;;;;;2.70;0.53;;;;;;;30.99;26.76;101068.15;1759165;81;20975;-89
2022/06/16 11:14:45;;;;;;;;;;;;;;;31.05;26.32;101067.30;1761662;80;20947;-89
2022/06/16 11:17:36;;;;;;;2.60;0.65;;;;;;;31.03;26.16;101061.26;1759255;81;20105;-89
2022/06/16 11:20:23;;;;;;;1.02;0.50;;;;;;;30.92;26.61;101074.13;1759194;81;21777;-89
2022/06/16 11:22:50;;;;;;;1.02;0.33;;;;;;;30.62;26.59;101071.12;1756096;81;20943;-91
2022/06/16 11:25:34;;;;;;;1.45;0.68;;;;;;;30.29;27.18;101071.50;1758943;81;20901;-90
2022/06/16 11:28:05;;;;;;;2.45;0.75;;;;;;;29.95;27.26;101073.41;1758882;81;20912;-89
2022/06/16 11:30:45;;;;;;;1.17;0.40;;;;;;;29.61;28.05;101070.34;1758943;80;20928;-89
2022/06/16 11:37:00;;;;;;;2.58;2.17;;;;;;;29.03;29.19;101071.34;1758847;81;21481;-89
2022/06/16 11:39:47;;;;;;;3.98;0.50;;;;;;;28.83;29.29;101076.67;1758883;81;20928;-88
2022/06/16 11:42:46;;;;;;;4.05;0.78;;;;;;;28.72;29.63;101076.23;1736949;81;20896;-89
2022/06/16 11:45:24;;;;;;;1.37;0.50;;;;;;;28.76;29.94;101073.11;1759320;81;20884;-90
2022/06/16 11:48:33;;;;;;;0.37;0.20;;;;;;;28.89;29.42;101066.42;1715960;82;22004;-88
2022/06/16 11:51:22;;;;;;;2.92;0.50;;;;;;;29.00;29.88;101062.31;1709507;83;20873;-88
2022/06/16 11:54:17;;;;;;;0.80;0.50;;;;;;;29.11;29.38;101059.88;1689812;84;21414;-89
2022/06/16 11:57:25;;;;;;;1.47;0.33;;;;;;;29.16;29.07;101056.55;1725143;82;21518;-89
2022/06/16 12:00:13;;;;;;;2.17;0.62;;;;;;;29.16;29.02;101054.37;1724299;81;20903;-91
2022/06/16 12:03:17;;;;;;;1.17;0.50;;;;;;;29.13;27.93;101049.70;1724105;82;21225;-88
2022/06/16 12:05:59;;;;;;;1.35;0.55;;;;;;;29.14;28.03;101047.30;1724472;82;21017;-88
2022/06/16 12:08:52;;;;;;;1.82;0.50;;;;;;;29.14;28.54;101044.59;1723716;82;20888;-89
2022/06/16 12:11:42;;;;;;;2.95;0.60;;;;;;;29.16;28.37;101046.28;1724685;83;20872;-89
2022/06/16 12:14:35;;;;;;;0.55;0.45;;;;;;;29.11;28.38;101045.55;1723481;83;20907;-88
2022/06/16 12:17:20;;;;;;;1.65;0.50;;;;;;;29.04;27.62;101042.80;1723571;82;20939;-89
2022/06/16 12:20:11;;;;;;;;;;;;;;;28.99;26.57;101039.02;1727078;82;20995;-90
2022/06/16 12:22:49;;;;;;;2.40;0.65;;;;;;;28.97;27.62;101047.84;1708688;84;20100;-89
2022/06/16 12:25:39;;;;;;;0.60;0.42;;;;;;;28.92;26.99;101042.53;1724812;81;21421;-89
2022/06/16 12:28:30;;;;;;;2.67;0.70;;;;;;;28.89;27.43;101042.95;1735060;82;20882;-89